Time;durP1;ratioP1;P1;durP2;ratioP2;P2;SDS_P1;SDS_P2;PMS_P1;PMS_P2;Temp;Humidity;BMP_temperature;BMP_pressure;BME280_temperature;BME280_humidity;BME280_pressure;Samples;Min_cycle;Max_cycle;Signal;HPM_P1;HPM_P2
2023/08/08 00:25:34;;;;;;;3.83;1.90;;;15.30;99.90;;;;;;6225031;22;20209;-86
2023/08/08 00:29:09;;;;;;;7.10;2.03;;;15.30;99.90;;;;;;6012552;23;20255;-86
2023/08/08 00:32:03;;;;;;;;;;;;;;;;;;;;;
2023/08/08 00:35:28;;;;;;;;;;;;;;;;;;;;;
2023/08/08 00:38:18;;;;;;;3.83;2.10;;;15.20;99.90;;;;;;5983772;24;20264;-85
2023/08/08 00:41:04;;;;;;;5.30;1.83;;;15.20;99.90;;;;;;5957838;24;20445;-86
2023/08/08 00:43:50;;;;;;;6.03;1.90;;;15.20;99.90;;;;;;5982663;24;20219;-86
2023/08/08 00:46:48;;;;;;;6.17;1.80;;;15.20;99.90;;;;;;5983795;24;20183;-86
2023/08/08 00:52:50;;;;;;;5.37;2.23;;;15.10;99.90;;;;;;5924550;24;20221;-85
2023/08/08 00:55:56;;;;;;;6.17;1.80;;;15.10;99.90;;;;;;5817666;24;20180;-88
2023/08/08 00:58:41;;;;;;;7.37;1.67;;;15.20;99.90;;;;;;5801181;24;20188;-85
2023/08/08 01:04:51;;;;;;;3.27;1.70;;;15.20;99.90;;;;;;5803171;24;20167;-86
2023/08/08 01:08:09;;;;;;;4.93;1.83;;;15.20;99.90;;;;;;5776978;24;20186;-86
2023/08/08 01:11:27;;;;;;;6.60;1.93;;;15.20;99.90;;;;;;5820603;24;20187;-85
2023/08/08 01:14:00;;;;;;;6.83;1.70;;;15.20;99.90;;;;;;5794358;24;20198;-87
2023/08/08 01:16:57;;;;;;;8.57;2.00;;;15.20;99.90;;;;;;5792330;24;20183;-87
2023/08/08 01:20:03;;;;;;;4.53;1.70;;;15.20;99.90;;;;;;5768399;24;20190;-84
2023/08/08 01:23:46;;;;;;;;;;;;;;;;;;;;;
2023/08/08 01:26:53;;;;;;;7.80;1.67;;;15.10;99.90;;;;;;5741846;24;20212;-86
2023/08/08 01:29:57;;;;;;;6.07;1.70;;;15.00;99.90;;;;;;5771621;24;20330;-87
2023/08/08 01:33:06;;;;;;;6.17;1.73;;;15.10;99.90;;;;;;5797840;24;20204;-86
2023/08/08 01:36:03;;;;;;;5.97;2.13;;;14.90;99.90;;;;;;5847099;24;20182;-86
2023/08/08 01:39:04;;;;;;;5.13;1.60;;;14.80;99.90;;;;;;5829411;24;20209;-86
2023/08/08 01:42:03;;;;;;;4.67;1.90;;;14.80;99.90;;;;;;5830073;24;20583;-85
2023/08/08 01:45:29;;;;;;;5.07;1.90;;;14.80;99.90;;;;;;5837674;24;20211;-87
2023/08/08 01:48:41;;;;;;;4.97;2.10;;;14.70;99.90;;;;;;5761146;24;20194;-84
2023/08/08 01:51:29;;;;;;;;;;;;;;;;;;;;;
2023/08/08 01:54:05;;;;;;;5.97;1.73;;;14.80;99.90;;;;;;5764286;24;20179;-85
2023/08/08 01:56:57;;;;;;;4.77;1.63;;;14.70;99.90;;;;;;5765136;24;20566;-86
2023/08/08 02:00:05;;;;;;;5.13;1.77;;;14.80;99.90;;;;;;5764364;24;20250;-86
2023/08/08 02:05:38;;;;;;;4.70;1.93;;;14.70;99.90;;;;;;5699371;25;20184;-86
2023/08/08 02:08:19;;;;;;;8.97;1.87;;;14.60;99.90;;;;;;5722744;25;20183;-86
2023/08/08 02:11:06;;;;;;;3.93;1.43;;;14.60;99.90;;;;;;5743571;25;20173;-86
2023/08/08 02:13:49;;;;;;;4.73;1.90;;;14.60;99.90;;;;;;5744006;24;20183;-86
2023/08/08 02:17:11;;;;;;;;;;;;;;;;;;;;;
2023/08/08 02:20:24;;;;;;;4.23;1.93;;;14.60;99.90;;;;;;5736424;25;20161;-86
2023/08/08 02:23:21;;;;;;;3.70;1.90;;;14.60;99.90;;;;;;5743863;25;20198;-86
2023/08/08 02:26:36;;;;;;;4.33;1.83;;;14.50;99.90;;;;;;5684854;25;20200;-86
2023/08/08 02:29:05;;;;;;;6.00;1.80;;;14.60;99.90;;;;;;5747069;24;20189;-86
2023/08/08 02:31:54;;;;;;;4.83;1.87;;;14.50;99.90;;;;;;5769581;24;20167;-86
2023/08/08 02:35:03;;;;;;;6.30;2.00;;;14.40;99.90;;;;;;5748466;24;20195;-87
2023/08/08 02:38:38;;;;;;;4.77;1.87;;;14.50;99.90;;;;;;5796500;24;20188;-87
2023/08/08 02:41:36;;;;;;;5.90;1.90;;;14.40;99.90;;;;;;5763079;24;20198;-87
2023/08/08 02:44:10;;;;;;;5.37;1.83;;;14.20;99.90;;;;;;5769693;24;20182;-87
2023/08/08 02:47:00;;;;;;;5.97;1.90;;;14.20;99.90;;;;;;5747599;24;20154;-85
2023/08/08 02:49:57;;;;;;;6.30;1.80;;;14.20;99.90;;;;;;5748862;24;20167;-85
2023/08/08 02:52:35;;;;;;;6.33;2.00;;;14.10;99.90;;;;;;5748405;24;20513;-85
2023/08/08 02:55:32;;;;;;;7.80;2.10;;;14.10;99.90;;;;;;5766988;24;20166;-86
2023/08/08 02:58:28;;;;;;;4.87;1.67;;;14.10;99.90;;;;;;5769215;24;20196;-86
2023/08/08 03:00:59;;;;;;;9.17;2.00;;;14.00;99.90;;;;;;5748121;24;20156;-86
2023/08/08 03:03:28;;;;;;;6.43;2.10;;;14.00;99.90;;;;;;5769361;24;20194;-86
2023/08/08 03:06:26;;;;;;;8.13;2.07;;;14.00;99.90;;;;;;5770292;24;20188;-86
2023/08/08 03:09:35;;;;;;;4.83;1.70;;;14.00;99.90;;;;;;5755114;24;20260;-85
2023/08/08 03:12:15;;;;;;;8.67;2.07;;;14.00;99.90;;;;;;5749286;24;20188;-85
2023/08/08 03:14:41;;;;;;;7.10;2.03;;;13.90;99.90;;;;;;5747466;24;20170;-85
2023/08/08 03:17:07;;;;;;;5.10;1.80;;;13.90;99.90;;;;;;5752415;24;20634;-86
2023/08/08 03:19:33;;;;;;;3.53;1.73;;;13.90;99.90;;;;;;5822566;24;20432;-85
2023/08/08 03:22:04;;;;;;;5.53;1.70;;;13.90;99.90;;;;;;5799519;24;20259;-86
2023/08/08 03:24:39;;;;;;;4.53;2.00;;;13.80;99.90;;;;;;5799802;24;20465;-86
2023/08/08 03:27:05;;;;;;;5.20;1.80;;;13.80;99.90;;;;;;5798951;24;20203;-85
2023/08/08 03:29:44;;;;;;;7.37;1.87;;;13.80;99.90;;;;;;5799163;24;20160;-85
2023/08/08 03:32:10;;;;;;;5.67;2.03;;;13.90;99.90;;;;;;5799929;24;20275;-85
2023/08/08 03:34:36;;;;;;;3.63;1.73;;;13.80;99.90;;;;;;5800207;24;20167;-85
2023/08/08 03:37:06;;;;;;;5.30;1.90;;;13.70;99.90;;;;;;5799636;24;20188;-86
2023/08/08 03:39:35;;;;;;;8.40;1.90;;;13.80;99.90;;;;;;5799381;24;20181;-86
2023/08/08 03:42:07;;;;;;;5.67;1.60;;;13.70;99.90;;;;;;5800311;24;20210;-87
2023/08/08 03:44:39;;;;;;;9.30;1.93;;;13.60;99.90;;;;;;5800242;24;20167;-86
2023/08/08 03:47:11;;;;;;;4.57;1.90;;;13.50;99.90;;;;;;5875602;24;20191;-86
2023/08/08 03:49:49;;;;;;;6.93;2.00;;;13.60;99.90;;;;;;5875600;24;20170;-86
2023/08/08 03:52:17;;;;;;;5.77;2.03;;;13.60;99.90;;;;;;5875443;24;20225;-85
2023/08/08 03:54:51;;;;;;;6.10;2.10;;;13.70;99.90;;;;;;5875910;24;20209;-85
2023/08/08 03:57:24;;;;;;;5.13;1.87;;;13.70;99.90;;;;;;5875519;24;20277;-84
2023/08/08 03:59:53;;;;;;;5.40;1.90;;;13.70;99.90;;;;;;5874877;24;20607;-87
2023/08/08 04:02:30;;;;;;;6.20;1.90;;;13.70;99.90;;;;;;5874489;24;20259;-87
2023/08/08 04:04:59;;;;;;;6.00;2.03;;;13.80;99.90;;;;;;5875316;24;20429;-85
2023/08/08 04:07:30;;;;;;;6.50;2.27;;;13.70;99.90;;;;;;5875972;24;20217;-86
2023/08/08 04:10:02;;;;;;;6.23;1.60;;;13.70;99.90;;;;;;5875715;24;20175;-85
2023/08/08 04:12:32;;;;;;;5.33;2.23;;;13.60;99.90;;;;;;5875051;24;20504;-85
2023/08/08 04:15:17;;;;;;;5.67;1.93;;;13.80;99.90;;;;;;5853133;24;20178;-86
2023/08/08 04:18:09;;;;;;;5.27;1.87;;;13.90;99.90;;;;;;5874291;24;20198;-84
2023/08/08 04:20:46;;;;;;;6.53;1.67;;;13.80;99.90;;;;;;5874812;24;20510;-84
2023/08/08 04:23:17;;;;;;;4.90;1.80;;;13.80;99.90;;;;;;5852458;24;20214;-86
2023/08/08 04:25:45;;;;;;;8.00;2.47;;;13.80;99.90;;;;;;5875284;24;20203;-86
2023/08/08 04:28:25;;;;;;;5.67;1.93;;;13.80;99.90;;;;;;5875524;24;20187;-87
2023/08/08 04:30:54;;;;;;;3.87;2.00;;;13.80;99.90;;;;;;5875484;24;20169;-86
2023/08/08 04:33:28;;;;;;;6.47;1.80;;;13.90;99.90;;;;;;5875155;24;20287;-85
2023/08/08 04:36:06;;;;;;;4.23;1.73;;;13.90;99.90;;;;;;5875519;24;20261;-86
2023/08/08 04:38:35;;;;;;;4.33;1.83;;;13.90;99.90;;;;;;5875129;24;20199;-87
2023/08/08 04:41:02;;;;;;;5.50;1.77;;;14.00;99.90;;;;;;5875303;24;20186;-86
2023/08/08 04:43:32;;;;;;;6.17;2.10;;;14.00;99.90;;;;;;5875330;24;20202;-85
2023/08/08 04:46:06;;;;;;;6.40;1.70;;;14.00;99.90;;;;;;5874933;24;20179;-86
2023/08/08 04:48:33;;;;;;;5.73;1.83;;;14.10;99.90;;;;;;5852375;24;20197;-86
2023/08/08 04:51:04;;;;;;;5.07;2.10;;;14.20;99.90;;;;;;5875329;24;20190;-84
2023/08/08 04:53:37;;;;;;;4.97;1.80;;;14.20;99.90;;;;;;5875135;24;20230;-86
2023/08/08 04:56:10;;;;;;;4.77;1.70;;;14.20;99.90;;;;;;5874886;24;20494;-85
2023/08/08 04:58:42;;;;;;;7.33;2.00;;;14.20;99.90;;;;;;5888741;24;20203;-85
2023/08/08 05:01:14;;;;;;;5.07;1.80;;;14.10;99.90;;;;;;5934472;24;20230;-85
2023/08/08 05:03:44;;;;;;;5.50;2.00;;;14.20;99.90;;;;;;5934148;24;20256;-86
2023/08/08 05:06:28;;;;;;;5.80;1.80;;;14.30;99.90;;;;;;5957662;24;20187;-87
2023/08/08 05:08:59;;;;;;;4.37;1.50;;;14.40;99.90;;;;;;6046195;23;20196;-85
2023/08/08 05:11:33;;;;;;;4.93;1.90;;;14.60;99.90;;;;;;6051538;23;20179;-86
2023/08/08 05:14:08;;;;;;;3.20;1.63;;;14.60;99.90;;;;;;6098971;23;20221;-87
2023/08/08 05:16:41;;;;;;;4.73;1.70;;;14.70;99.90;;;;;;6051993;23;20435;-88
2023/08/08 05:19:15;;;;;;;5.87;1.93;;;14.70;99.90;;;;;;6077963;23;20438;-88
2023/08/08 05:21:45;;;;;;;4.77;1.87;;;14.80;99.90;;;;;;6101322;23;20526;-86
2023/08/08 05:24:19;;;;;;;7.10;1.60;;;14.80;99.90;;;;;;6077921;23;20236;-86
2023/08/08 05:26:50;;;;;;;8.83;2.30;;;14.80;99.90;;;;;;6076902;23;20200;-87
2023/08/08 05:29:20;;;;;;;4.47;1.80;;;14.90;99.90;;;;;;6076958;23;20177;-86
2023/08/08 05:34:51;;;;;;;6.73;1.90;;;14.90;99.90;;;;;;6054471;23;20549;-86
2023/08/08 05:37:19;;;;;;;4.77;1.83;;;15.00;99.90;;;;;;6163614;23;20188;-86
2023/08/08 05:39:52;;;;;;;6.60;1.90;;;15.00;99.90;;;;;;6165483;23;20343;-84
2023/08/08 05:42:24;;;;;;;3.80;1.67;;;15.10;99.90;;;;;;6166127;23;20647;-86
2023/08/08 05:44:51;;;;;;;5.87;1.87;;;15.10;99.90;;;;;;6141725;23;20171;-82
2023/08/08 05:47:18;;;;;;;5.67;1.80;;;15.20;99.90;;;;;;6165163;23;20245;-83
2023/08/08 05:49:45;;;;;;;8.33;1.90;;;15.40;99.90;;;;;;6164703;23;20242;-84
2023/08/08 05:52:24;;;;;;;5.00;1.77;;;15.30;99.90;;;;;;6167968;23;20210;-85
2023/08/08 05:54:52;;;;;;;4.67;1.73;;;15.30;99.90;;;;;;6138361;23;20255;-85
2023/08/08 05:57:22;;;;;;;4.80;1.80;;;15.30;99.90;;;;;;6164800;23;20510;-82
2023/08/08 05:59:50;;;;;;;8.87;1.90;;;15.40;99.90;;;;;;6165842;23;20527;-86
2023/08/08 06:02:24;;;;;;;6.47;2.23;;;15.30;99.90;;;;;;6165829;23;20191;-88
2023/08/08 06:04:56;;;;;;;6.10;1.77;;;15.30;99.90;;;;;;6190890;23;20167;-87
2023/08/08 06:07:27;;;;;;;4.47;1.60;;;15.50;99.90;;;;;;6165532;23;20254;-88
2023/08/08 06:10:00;;;;;;;9.13;2.20;;;15.50;99.90;;;;;;6166242;23;20159;-87
2023/08/08 07:00:39;;;;;;;7.20;1.90;;;15.80;99.90;;;;;;6226511;22;20210;-89
2023/08/08 07:03:12;;;;;;;6.63;2.30;;;15.90;99.90;;;;;;6179857;22;20190;-76
2023/08/08 07:05:41;;;;;;;7.67;2.27;;;16.00;99.90;;;;;;6193262;23;20205;-77
2023/08/08 07:08:09;;;;;;;4.03;1.87;;;16.20;99.90;;;;;;6166584;23;20191;-76
2023/08/08 07:10:38;;;;;;;3.37;1.80;;;16.20;99.90;;;;;;6219374;23;20217;-76
2023/08/08 07:13:05;;;;;;;5.10;1.67;;;16.30;99.90;;;;;;6193242;23;20190;-75
2023/08/08 07:15:38;;;;;;;4.87;1.67;;;16.40;99.90;;;;;;6169324;23;20194;-76
2023/08/08 07:18:08;;;;;;;4.37;1.63;;;16.50;99.90;;;;;;6168925;23;20237;-79
2023/08/08 07:20:36;;;;;;;4.10;1.77;;;16.60;99.90;;;;;;6219347;23;20183;-77
2023/08/08 07:23:03;;;;;;;7.63;1.90;;;16.60;99.90;;;;;;6192770;23;20458;-74
2023/08/08 07:25:30;;;;;;;6.03;1.70;;;16.50;99.90;;;;;;6193150;23;20169;-76
2023/08/08 07:27:57;;;;;;;9.77;1.97;;;16.50;99.90;;;;;;6219117;23;20182;-78
2023/08/08 07:30:25;;;;;;;5.93;1.80;;;16.40;99.90;;;;;;6192600;23;20244;-78
2023/08/08 07:32:53;;;;;;;7.17;1.70;;;16.50;99.90;;;;;;6192233;23;20217;-76
2023/08/08 07:35:20;;;;;;;7.27;2.57;;;16.70;99.90;;;;;;6167972;23;20171;-78
2023/08/08 07:37:47;;;;;;;5.23;1.70;;;16.90;99.90;;;;;;6192391;23;20187;-78
2023/08/08 07:40:20;;;;;;;4.83;1.60;;;17.10;99.90;;;;;;6192498;23;20171;-77
2023/08/08 07:42:51;;;;;;;6.50;1.73;;;17.10;99.90;;;;;;6218722;23;20279;-78
2023/08/08 07:45:25;;;;;;;3.37;1.63;;;17.00;99.90;;;;;;6168950;23;20564;-80
2023/08/08 07:47:59;;;;;;;5.70;1.90;;;17.10;99.90;;;;;;6169501;23;20190;-77
2023/08/08 07:50:29;;;;;;;3.07;1.60;;;17.20;99.90;;;;;;6218749;23;20148;-77
2023/08/08 07:53:01;;;;;;;5.73;1.70;;;17.20;99.90;;;;;;6167775;23;20451;-77
2023/08/08 07:55:28;;;;;;;8.33;1.60;;;17.40;99.90;;;;;;6168229;23;20225;-77
2023/08/08 07:58:00;;;;;;;5.73;2.00;;;17.40;99.90;;;;;;6190628;23;20554;-77
2023/08/08 08:00:34;;;;;;;6.43;1.80;;;17.30;99.90;;;;;;6192983;23;20302;-77
2023/08/08 08:03:07;;;;;;;3.87;1.80;;;17.50;99.90;;;;;;6192484;23;20193;-78
2023/08/08 08:05:57;;;;;;;4.03;1.67;;;17.70;99.90;;;;;;6195517;23;20529;-76
2023/08/08 08:08:39;;;;;;;5.23;1.80;;;17.50;99.90;;;;;;6168516;23;20186;-76
2023/08/08 08:11:24;;;;;;;6.30;1.50;;;17.70;99.90;;;;;;6191672;23;20535;-76
2023/08/08 08:14:15;;;;;;;3.77;1.60;;;17.60;99.90;;;;;;6169568;23;20191;-78
2023/08/08 08:16:58;;;;;;;3.53;1.70;;;17.80;99.90;;;;;;6155892;23;20236;-76
2023/08/08 08:19:33;;;;;;;3.93;1.50;;;17.70;99.90;;;;;;6108663;23;20176;-77
2023/08/08 08:22:18;;;;;;;3.40;1.60;;;17.90;99.90;;;;;;6132572;23;20192;-79
2023/08/08 08:25:09;;;;;;;5.70;1.80;;;18.10;99.90;;;;;;6110297;23;20288;-79
2023/08/08 08:27:55;;;;;;;3.13;1.63;;;18.00;99.90;;;;;;6101734;23;20205;-78
2023/08/08 08:30:46;;;;;;;3.73;1.70;;;18.10;99.90;;;;;;6130692;23;20536;-79
2023/08/08 08:33:32;;;;;;;3.73;1.40;;;18.40;99.90;;;;;;6106975;23;20575;-77
2023/08/08 08:36:21;;;;;;;5.00;1.60;;;19.40;99.90;;;;;;6156154;23;20188;-76
2023/08/08 08:39:29;;;;;;;3.57;1.50;;;19.10;99.90;;;;;;6108778;23;20192;-77
2023/08/08 08:44:55;;;;;;;5.07;1.60;;;19.20;99.90;;;;;;6215511;22;20214;-79
2023/08/08 08:47:36;;;;;;;5.10;1.63;;;19.30;99.90;;;;;;6168684;23;20217;-79
2023/08/08 08:50:34;;;;;;;4.57;1.47;;;19.40;99.90;;;;;;6191899;23;20175;-79
2023/08/08 08:53:46;;;;;;;6.57;1.70;;;19.60;99.90;;;;;;6188135;23;20187;-77
2023/08/08 08:56:38;;;;;;;2.83;1.20;;;19.50;99.90;;;;;;6169198;23;20167;-80
2023/08/08 08:59:19;;;;;;;7.40;1.60;;;19.70;99.90;;;;;;6193314;23;20170;-80
2023/08/08 09:02:11;;;;;;;5.33;1.40;;;19.80;99.90;;;;;;6195144;23;20194;-79
2023/08/08 09:05:25;;;;;;;4.93;1.67;;;19.00;99.90;;;;;;6171003;23;20175;-79
2023/08/08 09:08:15;;;;;;;5.53;1.47;;;18.50;99.90;;;;;;6167481;23;20215;-79
2023/08/08 09:10:59;;;;;;;5.10;1.50;;;18.90;99.90;;;;;;6168416;23;20198;-80
2023/08/08 09:13:40;;;;;;;4.47;1.30;;;19.00;99.90;;;;;;6193568;23;20179;-77
2023/08/08 09:16:35;;;;;;;5.20;1.60;;;18.80;99.90;;;;;;6217922;23;20186;-76
2023/08/08 09:19:08;;;;;;;3.50;1.50;;;18.60;99.90;;;;;;6218133;23;20179;-78
2023/08/08 09:22:08;;;;;;;3.67;1.57;;;18.80;99.90;;;;;;6218385;23;20164;-78
2023/08/08 09:25:19;;;;;;;3.73;1.53;;;19.00;99.90;;;;;;6189718;23;20217;-79
2023/08/08 09:27:57;;;;;;;3.30;1.63;;;18.80;99.90;;;;;;6094912;23;20261;-78
2023/08/08 09:31:01;;;;;;;3.93;1.60;;;19.00;99.90;;;;;;6072157;23;20173;-79
2023/08/08 09:34:03;;;;;;;4.23;1.50;;;19.10;99.90;;;;;;5981598;23;20215;-80
2023/08/08 09:36:44;;;;;;;5.20;1.50;;;18.70;99.90;;;;;;5958896;24;20208;-81
2023/08/08 09:39:33;;;;;;;3.93;1.30;;;18.50;99.90;;;;;;5982632;23;20192;-79
2023/08/08 09:42:57;;;;;;;;;;;;;;;;;;;;;
2023/08/08 09:46:16;;;;;;;5.03;1.47;;;18.90;99.90;;;;;;5845791;24;20190;-79
2023/08/08 09:49:24;;;;;;;2.00;1.30;;;18.60;99.90;;;;;;5845162;24;20249;-79
2023/08/08 09:52:04;;;;;;;3.17;1.20;;;18.50;99.90;;;;;;5846267;24;20186;-79
2023/08/08 09:55:12;;;;;;;3.57;1.30;;;18.80;99.90;;;;;;5846256;24;20609;-80
2023/08/08 09:58:04;;;;;;;4.43;1.30;;;18.50;99.90;;;;;;5860575;24;20182;-79
2023/08/08 10:00:59;;;;;;;4.80;1.70;;;18.40;99.90;;;;;;5900058;24;20214;-79
2023/08/08 10:03:42;;;;;;;4.30;1.47;;;18.50;99.90;;;;;;5902422;24;20580;-80
2023/08/08 10:06:16;;;;;;;4.67;1.33;;;18.50;99.90;;;;;;5984282;24;20173;-76
2023/08/08 10:09:03;;;;;;;6.60;1.33;;;18.70;99.90;;;;;;5975928;23;20218;-79
2023/08/08 10:11:38;;;;;;;8.87;1.70;;;19.00;99.90;;;;;;5906943;24;20177;-78
2023/08/08 10:14:56;;;;;;;3.73;1.30;;;20.10;99.90;;;;;;5889686;24;20177;-77
2023/08/08 10:17:48;;;;;;;5.13;1.50;;;20.70;99.90;;;;;;5886014;24;20227;-79
2023/08/08 10:20:25;;;;;;;4.00;1.27;;;20.80;99.90;;;;;;5927593;24;20174;-78
2023/08/08 10:23:02;;;;;;;5.73;1.20;;;20.70;99.90;;;;;;6041152;23;20264;-77
2023/08/08 10:25:43;;;;;;;3.70;1.20;;;20.50;99.90;;;;;;6069774;23;20178;-79
2023/08/08 10:28:21;;;;;;;5.77;1.03;;;20.10;99.90;;;;;;6069804;23;20218;-77
2023/08/08 10:31:08;;;;;;;3.67;1.43;;;20.10;99.90;;;;;;6163159;23;20167;-77
2023/08/08 10:33:49;;;;;;;5.60;1.50;;;19.90;99.90;;;;;;6140397;23;20280;-78
2023/08/08 10:36:23;;;;;;;4.73;1.20;;;20.20;99.90;;;;;;6165045;23;20202;-78
2023/08/08 10:38:58;;;;;;;2.87;1.20;;;20.90;99.90;;;;;;6162923;23;20254;-78
2023/08/08 10:41:32;;;;;;;3.83;1.10;;;21.30;99.90;;;;;;6165254;23;20155;-78
2023/08/08 10:44:14;;;;;;;2.37;1.10;;;21.50;99.90;;;;;;6163102;23;20214;-79
2023/08/08 10:46:48;;;;;;;3.43;1.03;;;22.00;99.90;;;;;;6163188;23;20162;-78
2023/08/08 10:49:41;;;;;;;2.83;1.10;;;22.60;99.90;;;;;;6161751;23;20168;-79
2023/08/08 10:52:23;;;;;;;2.93;1.30;;;22.50;99.90;;;;;;6138740;23;20207;-78
2023/08/08 10:55:26;;;;;;;5.07;1.10;;;22.10;99.50;;;;;;6165281;23;20230;-79
2023/08/08 10:58:19;;;;;;;3.60;1.20;;;22.20;99.30;;;;;;6069007;23;20198;-79
2023/08/08 11:00:56;;;;;;;3.70;1.30;;;21.60;99.90;;;;;;6069335;23;20178;-77
2023/08/08 11:03:49;;;;;;;2.93;0.90;;;21.20;99.90;;;;;;6069054;23;20190;-78
2023/08/08 11:06:33;;;;;;;3.97;1.00;;;20.80;99.90;;;;;;6044574;23;20170;-77
2023/08/08 11:09:38;;;;;;;3.40;1.20;;;20.70;99.90;;;;;;6044875;23;20180;-79
2023/08/08 11:12:18;;;;;;;2.33;1.00;;;20.80;99.90;;;;;;6067518;23;20194;-80
2023/08/08 11:15:15;;;;;;;3.57;1.20;;;20.30;99.90;;;;;;6044934;23;20581;-78
2023/08/08 11:17:54;;;;;;;4.77;1.10;;;20.20;99.90;;;;;;6068938;23;20194;-78
2023/08/08 11:20:38;;;;;;;4.60;1.20;;;20.10;99.90;;;;;;6045156;23;20459;-77
2023/08/08 11:23:13;;;;;;;5.03;1.20;;;20.10;99.90;;;;;;6045405;23;20220;-78
2023/08/08 11:25:51;;;;;;;2.50;1.20;;;20.20;99.90;;;;;;6069281;23;20206;-78
2023/08/08 11:28:28;;;;;;;2.17;1.13;;;20.50;99.90;;;;;;6021519;23;20194;-76
2023/08/08 11:30:59;;;;;;;3.27;1.00;;;20.80;99.90;;;;;;6068739;23;20221;-77
2023/08/08 11:33:34;;;;;;;2.93;0.90;;;21.10;99.90;;;;;;6068813;23;20674;-76
2023/08/08 11:36:42;;;;;;;4.83;1.00;;;21.30;99.90;;;;;;6052873;23;20170;-76
2023/08/08 11:39:31;;;;;;;3.10;1.20;;;21.60;98.60;;;;;;6077047;23;20176;-79
2023/08/08 11:42:08;;;;;;;4.37;1.40;;;21.70;98.30;;;;;;6074750;23;20173;-78
2023/08/08 11:44:48;;;;;;;4.77;1.27;;;21.40;98.30;;;;;;6120341;23;20241;-76
2023/08/08 11:47:36;;;;;;;1.90;0.90;;;21.10;96.50;;;;;;6081550;23;20197;-78
2023/08/08 11:50:05;;;;;;;1.43;0.87;;;20.90;97.40;;;;;;6127180;23;20165;-79
2023/08/08 11:52:46;;;;;;;1.43;0.90;;;21.20;97.80;;;;;;6102208;23;20239;-76
2023/08/08 11:55:22;;;;;;;2.50;0.80;;;21.70;95.90;;;;;;6102400;23;20176;-78
2023/08/08 11:57:54;;;;;;;1.40;0.90;;;22.70;96.10;;;;;;6102564;23;20651;-77
2023/08/08 12:00:31;;;;;;;2.47;1.00;;;22.50;94.30;;;;;;6102327;23;20199;-78
2023/08/08 12:03:11;;;;;;;1.60;0.85;;;23.20;95.10;;;;;;6011394;23;20226;-79
2023/08/08 12:05:47;;;;;;;2.38;0.82;;;24.00;92.60;;;;;;5987355;23;20227;-78
2023/08/08 12:08:31;;;;;;;3.05;1.30;;;24.50;91.50;;;;;;6011814;23;20266;-78
2023/08/08 12:11:15;;;;;;;3.15;0.95;;;24.10;91.60;;;;;;5987561;23;20224;-78
2023/08/08 12:14:14;;;;;;;2.43;1.03;;;24.00;91.10;;;;;;6060240;23;20274;-77
2023/08/08 12:16:55;;;;;;;2.00;1.00;;;23.60;89.40;;;;;;6068473;23;20163;-77
2023/08/08 12:20:03;;;;;;;4.20;1.20;;;24.10;90.00;;;;;;6043916;23;20518;-80
2023/08/08 12:23:16;;;;;;;1.75;1.10;;;23.80;86.80;;;;;;6134597;23;20199;-77
2023/08/08 12:26:05;;;;;;;3.22;0.85;;;24.00;89.30;;;;;;6156170;23;20179;-77
2023/08/08 12:28:53;;;;;;;3.72;1.08;;;24.70;89.10;;;;;;6156192;23;20474;-77
2023/08/08 12:31:36;;;;;;;1.50;0.93;;;25.20;87.50;;;;;;6131562;23;20190;-78
2023/08/08 12:34:13;;;;;;;1.38;0.70;;;25.10;84.30;;;;;;6156372;23;20192;-77
2023/08/08 12:37:27;;;;;;;2.75;1.05;;;24.20;84.00;;;;;;6156031;23;20235;-77
2023/08/08 12:40:26;;;;;;;2.78;1.00;;;23.50;85.30;;;;;;6134991;23;20183;-78
2023/08/08 12:43:03;;;;;;;2.57;0.90;;;22.80;89.10;;;;;;6132374;23;20224;-78
2023/08/08 12:46:24;;;;;;;1.98;0.85;;;22.70;90.10;;;;;;6131264;23;20566;-79
2023/08/08 12:49:14;;;;;;;1.57;0.90;;;22.80;88.70;;;;;;6125914;23;20197;-78
2023/08/08 12:51:50;;;;;;;1.70;0.88;;;22.80;88.30;;;;;;6101773;23;20169;-78
2023/08/08 12:54:32;;;;;;;1.60;0.90;;;22.90;86.30;;;;;;6100765;23;20236;-78
2023/08/08 13:01:00;;;;;;;2.13;0.90;;;22.30;90.00;;;;;;6081775;23;20169;-79
2023/08/08 13:04:05;;;;;;;2.17;1.10;;;21.90;91.30;;;;;;6084192;23;20508;-76
2023/08/08 13:06:51;;;;;;;1.10;0.70;;;22.10;90.00;;;;;;6115927;23;20171;-78
2023/08/08 13:09:38;;;;;;;2.03;0.90;;;22.30;88.40;;;;;;6131192;23;20168;-78
2023/08/08 13:12:24;;;;;;;2.07;1.03;;;22.10;86.30;;;;;;6132835;23;20188;-81
2023/08/08 13:15:07;;;;;;;1.10;0.90;;;22.40;88.40;;;;;;6155806;23;20227;-79
2023/08/08 13:17:58;;;;;;;2.50;1.00;;;22.70;88.10;;;;;;6154937;23;20203;-78
2023/08/08 13:21:15;;;;;;;3.70;1.10;;;22.80;87.60;;;;;;6196508;23;20167;-79
2023/08/08 13:24:12;;;;;;;1.70;0.93;;;22.30;88.70;;;;;;6169558;23;20190;-79
2023/08/08 13:27:12;;;;;;;1.87;0.90;;;22.10;89.30;;;;;;6195594;23;20186;-79
2023/08/08 13:30:07;;;;;;;5.87;3.03;;;22.20;90.00;;;;;;6172484;23;20531;-80
2023/08/08 13:32:45;;;;;;;1.73;1.00;;;22.10;89.90;;;;;;6168208;23;20182;-80
2023/08/08 13:35:23;;;;;;;1.30;0.80;;;21.70;90.00;;;;;;6155329;23;20219;-80
2023/08/08 13:38:24;;;;;;;3.03;0.80;;;21.40;90.00;;;;;;6073330;23;20197;-80
2023/08/08 13:41:29;;;;;;;3.67;1.17;;;20.90;90.50;;;;;;6072763;23;20174;-81
2023/08/08 13:44:21;;;;;;;1.40;1.00;;;20.40;91.80;;;;;;6098031;23;20216;-79
2023/08/08 13:47:36;;;;;;;3.60;0.90;;;20.30;92.10;;;;;;6097735;23;20292;-79
2023/08/08 13:51:05;;;;;;;4.57;1.00;;;20.20;92.40;;;;;;6059500;23;20177;-79
2023/08/08 13:54:28;;;;;;;2.00;0.90;;;20.10;93.20;;;;;;6093712;23;20166;-79
2023/08/08 13:57:34;;;;;;;1.70;1.20;;;20.00;93.50;;;;;;6075906;23;20197;-80
2023/08/08 14:00:33;;;;;;;3.43;1.07;;;20.00;94.30;;;;;;6097707;23;20253;-80
2023/08/08 14:03:21;;;;;;;4.03;1.30;;;19.70;95.80;;;;;;6097479;23;20201;-79
2023/08/08 14:06:28;;;;;;;;;;;;;;;;;;;;;
2023/08/08 14:09:15;;;;;;;2.17;1.03;;;20.40;96.40;;;;;;6098430;23;20221;-77
2023/08/08 14:12:01;;;;;;;4.83;1.00;;;21.20;95.30;;;;;;6097935;23;20174;-77
2023/08/08 14:14:58;;;;;;;2.27;0.90;;;21.90;94.20;;;;;;6087713;23;20200;-80
2023/08/08 14:18:15;;;;;;;1.80;0.97;;;22.00;93.90;;;;;;6131529;23;20192;-79
2023/08/08 14:20:55;;;;;;;2.53;1.07;;;21.80;93.10;;;;;;6134441;23;20176;-76
2023/08/08 14:23:49;;;;;;;;;;;;;;;;;;;;;
2023/08/08 14:26:41;;;;;;;4.43;1.10;;;21.50;93.40;;;;;;6182847;23;20572;-80
2023/08/08 14:29:41;;;;;;;1.83;1.07;;;21.40;94.60;;;;;;6196163;23;20474;-79
2023/08/08 14:33:14;;;;;;;4.03;1.00;;;22.10;93.90;;;;;;6096760;23;20192;-79
2023/08/08 14:36:18;;;;;;;;;;;;;;;;;;;;;
2023/08/08 14:39:53;;;;;;;3.53;1.30;;;22.80;93.30;;;;;;5928457;24;20189;-78
2023/08/08 14:42:49;;;;;;;2.47;1.08;;;23.40;92.00;;;;;;5875365;24;20280;-79
2023/08/08 14:45:49;;;;;;;1.70;1.10;;;23.90;90.60;;;;;;5846400;24;20202;-80
2023/08/08 14:48:57;;;;;;;1.92;1.10;;;24.30;91.20;;;;;;5789403;24;20190;-79
2023/08/08 14:52:02;;;;;;;4.35;1.20;;;25.90;89.20;;;;;;5846121;24;20171;-76
2023/08/08 14:54:44;;;;;;;2.30;1.20;;;27.20;85.70;;;;;;5804401;24;20532;-78
2023/08/08 14:57:32;;;;;;;4.40;1.05;;;27.90;81.90;;;;;;5779687;24;20188;-77
2023/08/08 15:00:12;;;;;;;2.05;0.98;;;27.40;76.60;;;;;;5804100;24;20168;-78
2023/08/08 15:02:48;;;;;;;2.88;1.00;;;26.10;79.70;;;;;;5782959;24;20191;-77
2023/08/08 15:06:05;;;;;;;2.03;1.15;;;25.30;82.80;;;;;;5871202;24;20231;-78
2023/08/08 15:09:09;;;;;;;2.92;1.20;;;25.40;82.20;;;;;;5813075;24;20642;-77
2023/08/08 15:12:50;;;;;;;4.90;1.45;;;25.10;83.70;;;;;;5793061;24;20554;-77
2023/08/08 15:15:59;;;;;;;2.10;1.10;;;24.40;85.50;;;;;;5794698;24;20190;-78
2023/08/08 15:19:04;;;;;;;2.75;1.10;;;23.20;88.30;;;;;;5810710;24;20211;-79
2023/08/08 15:21:53;;;;;;;1.63;1.08;;;22.80;90.20;;;;;;5842219;24;20177;-78
2023/08/08 15:25:04;;;;;;;2.45;1.08;;;23.40;90.30;;;;;;5955851;24;20205;-77
2023/08/08 15:28:03;;;;;;;;;;;;;;;;;;;;;
2023/08/08 15:31:16;;;;;;;2.20;0.90;;;24.70;79.50;;;;;;6100588;23;20173;-77
2023/08/08 15:34:34;;;;;;;1.48;0.93;;;25.30;76.80;;;;;;6126597;23;20188;-77
2023/08/08 15:37:37;;;;;;;2.25;0.93;;;25.90;76.30;;;;;;6102014;23;20203;-77
2023/08/08 15:40:26;;;;;;;2.40;0.95;;;25.40;76.30;;;;;;6067912;23;20273;-77
2023/08/08 15:42:59;;;;;;;1.77;1.08;;;24.00;77.60;;;;;;6093534;23;20279;-75
2023/08/08 15:45:43;;;;;;;2.75;1.00;;;23.30;81.10;;;;;;6108668;23;20275;-78
2023/08/08 15:48:44;;;;;;;2.25;0.90;;;23.00;82.10;;;;;;6135067;23;20255;-79
2023/08/08 15:51:15;;;;;;;2.73;1.10;;;22.60;83.40;;;;;;6132120;23;20153;-78
2023/08/08 15:57:26;;;;;;;2.67;1.00;;;22.00;85.20;;;;;;6156137;23;20216;-77
2023/08/08 16:00:05;;;;;;;2.50;1.07;;;21.60;86.90;;;;;;6107398;23;20259;-78
2023/08/08 16:02:42;;;;;;;2.27;1.00;;;21.40;87.50;;;;;;6132476;23;20211;-78
2023/08/08 16:05:27;;;;;;;1.93;1.00;;;21.20;88.50;;;;;;6132769;23;20223;-77
2023/08/08 16:08:28;;;;;;;4.67;1.00;;;21.10;89.00;;;;;;6110576;23;20220;-76
2023/08/08 16:11:11;;;;;;;3.23;0.90;;;21.00;90.10;;;;;;6159618;23;20174;-76
2023/08/08 16:13:54;;;;;;;3.63;1.03;;;21.00;90.10;;;;;;6195512;23;20431;-77